Portada
METAR-TAF:

METAR-TAF

Aeroports :

São Gabriel da Cachoeira, Amazones, Brasil

latitud: 00-08S, longitud: 067-05W, altitud: 90 m

Observació

L'informe es va fer fa 5 hores i 48 minuts, a les 19:00 UTC
Vent 3 kt del Est/Sud-Est
Temperatura 30°C
Humitat 70%
Pressió 1011 hPa
Visibilitat 10 km o més
Escasses núvols a una alçada de 2600 ft
Escasses núvols a una alçada de 2700 ft, Cumulus congestus.

METAR: SBUA 191900Z 11003KT 9999 FEW026 FEW027TCU 30/24 Q1011

Hora: 20:48 (00:48 UTC)


TAF: manca

Observacions i pronòstics meteorològics de més de 4000 aeroports (METAR i TAF).

Les estacions disponibles són els punts grocs i vermells al mapa.

Posi el ratolí al punt desitjat per veure el nom de l'estació.

Feu clic per veure les observacions i els pronòstics meteorològics.

Per canviar el mapa: feu clic els botons verds amb una creu de color negre per apropar; al botó verd amb un guió per allunyar la imatge; o en les fletxes verdes per a mapes adjacents.


METAR-TAF: